createdAt,value
2017-11-07T00:00:59.146Z,4.52
2017-11-07T00:03:26.688Z,4.51
2017-11-07T00:05:54.267Z,4.47
2017-11-07T00:08:22.407Z,4.47
2017-11-07T00:10:50.006Z,4.43
2017-11-07T00:13:17.578Z,4.37
2017-11-07T00:15:45.118Z,4.38
2017-11-07T00:18:12.719Z,4.35
2017-11-07T00:20:40.314Z,4.34
2017-11-07T00:23:07.851Z,4.32
2017-11-07T00:25:35.394Z,4.30
2017-11-07T00:28:02.985Z,4.29
2017-11-07T00:30:30.551Z,4.27
2017-11-07T00:32:58.093Z,4.22
2017-11-07T00:35:25.670Z,4.20
2017-11-07T00:37:53.213Z,4.13
2017-11-07T00:40:20.759Z,4.13
2017-11-07T00:42:48.339Z,4.15
2017-11-07T00:45:15.887Z,4.08
2017-11-07T00:47:43.434Z,4.08
2017-11-07T00:50:11.018Z,4.08
2017-11-07T00:52:38.566Z,4.03
2017-11-07T00:55:06.106Z,4.03
2017-11-07T00:57:33.687Z,4.06
2017-11-07T01:00:01.243Z,4.02
2017-11-07T01:02:28.787Z,4.03
2017-11-07T01:04:56.374Z,4.00
2017-11-07T01:07:23.924Z,4.02
2017-11-07T01:09:51.462Z,3.98
2017-11-07T01:12:19.043Z,3.98
2017-11-07T01:14:46.586Z,3.94
2017-11-07T01:17:14.128Z,3.90
2017-11-07T01:19:41.707Z,3.87
2017-11-07T01:22:09.259Z,3.84
2017-11-07T01:24:36.806Z,3.75
2017-11-07T01:27:04.382Z,3.70
2017-11-07T01:29:31.927Z,3.67
2017-11-07T01:31:59.479Z,3.62
2017-11-07T01:34:27.054Z,3.61
2017-11-07T01:36:54.594Z,3.59
2017-11-07T01:39:22.137Z,3.58
2017-11-07T01:41:49.774Z,3.57
2017-11-07T01:44:17.310Z,3.52
2017-11-07T01:46:44.858Z,3.52
2017-11-07T01:49:12.476Z,3.54
2017-11-07T01:51:40.023Z,3.54
2017-11-07T01:54:07.635Z,3.54
2017-11-07T01:56:35.305Z,3.56
2017-11-07T01:59:02.968Z,3.54
2017-11-07T02:01:30.643Z,3.53
2017-11-07T02:03:58.359Z,3.52
2017-11-07T02:06:26.015Z,3.51
2017-11-07T02:08:53.625Z,3.49
2017-11-07T02:11:21.332Z,3.47
2017-11-07T02:13:48.950Z,3.51
2017-11-07T02:16:16.551Z,3.49
2017-11-07T02:18:44.191Z,3.47
2017-11-07T02:21:11.807Z,3.43
2017-11-07T02:23:39.419Z,3.39
2017-11-07T02:26:07.083Z,3.34
2017-11-07T02:28:34.710Z,3.37
2017-11-07T02:31:02.375Z,3.39
2017-11-07T02:33:30.093Z,3.39
2017-11-07T02:35:57.760Z,3.40
2017-11-07T02:38:25.495Z,3.35
2017-11-07T02:40:53.290Z,3.33
2017-11-07T02:43:20.960Z,3.37
2017-11-07T02:45:48.566Z,3.36
2017-11-07T02:48:16.284Z,3.39
2017-11-07T02:50:43.896Z,3.36
2017-11-07T02:53:11.523Z,3.37
2017-11-07T02:55:39.241Z,3.35
2017-11-07T02:58:06.911Z,3.32
2017-11-07T03:00:34.619Z,3.36
2017-11-07T03:03:02.279Z,3.45
2017-11-07T03:05:29.952Z,3.53
2017-11-07T03:07:57.619Z,3.64
2017-11-07T03:10:25.275Z,3.78
2017-11-07T03:12:52.884Z,3.90
2017-11-07T03:15:20.487Z,3.99
2017-11-07T03:17:48.211Z,4.07
2017-11-07T03:20:15.823Z,4.17
2017-11-07T03:22:43.452Z,4.27
2017-11-07T03:25:11.108Z,4.35
2017-11-07T03:27:38.776Z,4.45
2017-11-07T03:30:06.394Z,4.55
2017-11-07T03:32:34.067Z,4.60
2017-11-07T03:35:01.678Z,4.61
2017-11-07T03:37:29.282Z,4.72
2017-11-07T03:39:57.011Z,4.80
2017-11-07T03:42:24.623Z,4.79
2017-11-07T03:44:52.215Z,4.82
2017-11-07T03:47:19.892Z,4.82
2017-11-07T03:49:47.497Z,4.80
2017-11-07T03:52:15.107Z,4.71
2017-11-07T03:54:42.916Z,4.76
2017-11-07T03:57:10.580Z,4.84
2017-11-07T03:59:38.187Z,4.89
2017-11-07T04:02:05.915Z,4.93
2017-11-07T04:04:33.579Z,4.91
2017-11-07T04:07:01.187Z,4.99
2017-11-07T04:09:28.939Z,5.05
2017-11-07T04:11:56.551Z,5.04
2017-11-07T04:14:24.160Z,5.15
2017-11-07T04:16:51.815Z,5.19
2017-11-07T04:19:19.427Z,5.15
2017-11-07T04:21:47.035Z,5.23
2017-11-07T04:24:14.692Z,5.25
2017-11-07T04:26:42.303Z,5.32
2017-11-07T04:29:09.968Z,5.42
2017-11-07T04:31:37.626Z,5.50
2017-11-07T04:34:05.244Z,5.54
2017-11-07T04:36:32.854Z,5.61
2017-11-07T04:39:00.514Z,5.68
2017-11-07T04:41:28.126Z,5.71
2017-11-07T04:43:55.752Z,5.76
2017-11-07T04:46:23.407Z,5.79
2017-11-07T04:48:51.012Z,5.86
2017-11-07T04:51:18.619Z,5.91
2017-11-07T04:53:46.331Z,5.98
2017-11-07T04:56:13.939Z,5.94
2017-11-07T04:58:41.543Z,5.73
2017-11-07T05:01:09.261Z,5.58
2017-11-07T05:03:36.868Z,5.70
2017-11-07T05:06:04.529Z,5.81
2017-11-07T05:08:32.236Z,5.84
2017-11-07T05:10:59.868Z,5.85
2017-11-07T05:13:27.476Z,5.88
2017-11-07T05:15:55.267Z,5.88
2017-11-07T05:18:22.867Z,5.88
2017-11-07T05:20:50.467Z,6.03
2017-11-07T05:23:18.287Z,6.03
2017-11-07T05:25:45.962Z,6.14
2017-11-07T05:28:13.630Z,6.16
2017-11-07T05:30:41.340Z,6.18
2017-11-07T05:33:08.952Z,6.19
2017-11-07T05:35:36.624Z,6.27
2017-11-07T05:38:04.331Z,6.28
2017-11-07T05:40:31.936Z,6.32
2017-11-07T05:42:59.547Z,6.31
2017-11-07T05:45:27.221Z,6.45
2017-11-07T05:47:54.864Z,6.55
2017-11-07T05:50:22.687Z,6.57
2017-11-07T05:52:50.386Z,6.55
2017-11-07T05:55:18.091Z,6.56
2017-11-07T05:57:45.695Z,6.54
2017-11-07T06:00:13.363Z,6.63
2017-11-07T06:02:41.028Z,6.62
2017-11-07T06:05:08.635Z,6.73
2017-11-07T06:07:36.304Z,6.88
2017-11-07T06:10:03.909Z,6.97
2017-11-07T06:12:31.527Z,7.09
2017-11-07T06:14:59.179Z,7.03
2017-11-07T06:17:26.792Z,7.12
2017-11-07T06:19:54.408Z,7.09
2017-11-07T06:22:22.131Z,7.14
2017-11-07T06:24:49.804Z,7.13
2017-11-07T06:27:17.472Z,7.13
2017-11-07T06:29:45.127Z,7.20
2017-11-07T06:32:12.736Z,7.32
2017-11-07T06:34:40.342Z,7.34
2017-11-07T06:37:08.003Z,7.40
2017-11-07T06:39:35.610Z,7.28
2017-11-07T06:42:03.227Z,7.38
2017-11-07T06:44:30.897Z,7.29
2017-11-07T06:46:58.568Z,7.34
2017-11-07T06:49:26.170Z,7.47
2017-11-07T06:51:53.811Z,7.45
2017-11-07T06:54:21.423Z,7.52
2017-11-07T06:56:49.027Z,7.57
2017-11-07T06:59:16.715Z,7.60
2017-11-07T07:01:44.348Z,7.67
2017-11-07T07:04:12.013Z,7.68
2017-11-07T07:06:39.651Z,7.55
2017-11-07T07:09:07.320Z,7.56
2017-11-07T07:11:34.980Z,7.64
2017-11-07T07:14:02.636Z,7.74
2017-11-07T07:16:30.243Z,7.71
2017-11-07T07:18:57.849Z,7.97
2017-11-07T07:21:25.504Z,8.16
2017-11-07T07:23:53.169Z,8.37
2017-11-07T07:26:20.772Z,8.47
2017-11-07T07:28:48.415Z,8.36
2017-11-07T07:31:16.076Z,8.33
2017-11-07T07:33:43.680Z,8.51
2017-11-07T07:36:11.347Z,8.66
2017-11-07T07:38:38.959Z,8.87
2017-11-07T07:41:06.564Z,8.85
2017-11-07T07:43:34.217Z,8.96
2017-11-07T07:46:01.881Z,9.06
2017-11-07T07:48:29.483Z,9.11
2017-11-07T07:50:57.303Z,9.16
2017-11-07T07:53:24.908Z,9.30
2017-11-07T07:55:52.523Z,9.37
2017-11-07T07:58:20.168Z,9.60
2017-11-07T08:00:47.777Z,9.86
2017-11-07T08:03:15.388Z,9.99
2017-11-07T08:05:43.127Z,10.00
2017-11-07T08:08:10.883Z,10.07
2017-11-07T08:10:38.539Z,10.57
2017-11-07T08:13:06.252Z,10.77
2017-11-07T08:15:33.926Z,10.95
2017-11-07T08:18:01.539Z,10.85
2017-11-07T08:20:29.268Z,11.05
2017-11-07T08:22:56.886Z,11.36
2017-11-07T08:25:24.548Z,11.59
2017-11-07T08:27:52.203Z,11.97
2017-11-07T08:30:19.823Z,11.88
2017-11-07T08:32:47.430Z,11.98
2017-11-07T08:35:15.088Z,12.05
2017-11-07T08:37:42.700Z,12.07
2017-11-07T08:40:10.390Z,12.10
2017-11-07T08:42:38.168Z,12.12
2017-11-07T08:45:05.865Z,12.21
2017-11-07T08:47:33.617Z,12.35
2017-11-07T08:50:01.426Z,12.33
2017-11-07T08:52:29.205Z,12.12
2017-11-07T08:54:56.984Z,12.19
2017-11-07T08:57:24.789Z,12.04
2017-11-07T08:59:52.569Z,12.26
2017-11-07T09:02:20.307Z,12.33
2017-11-07T09:04:48.125Z,12.42
2017-11-07T09:07:15.897Z,12.29
2017-11-07T09:09:44.664Z,12.38
2017-11-07T09:12:12.609Z,12.41
2017-11-07T09:14:40.393Z,12.29
2017-11-07T09:17:08.155Z,12.19
2017-11-07T09:19:36.000Z,12.15
2017-11-07T09:22:03.773Z,12.20
2017-11-07T09:24:31.558Z,12.33
2017-11-07T09:26:59.390Z,12.35
2017-11-07T09:29:27.251Z,12.41
2017-11-07T09:31:55.105Z,12.38
2017-11-07T09:34:22.937Z,12.43
2017-11-07T09:36:50.742Z,12.38
2017-11-07T09:39:18.525Z,12.35
2017-11-07T09:41:46.364Z,12.55
2017-11-07T09:44:14.133Z,12.60
2017-11-07T09:46:41.948Z,12.76
2017-11-07T09:49:09.774Z,12.75
2017-11-07T09:51:37.565Z,12.61
2017-11-07T09:54:05.366Z,12.63
2017-11-07T09:56:33.192Z,12.63
2017-11-07T09:59:00.981Z,12.57
2017-11-07T10:01:28.761Z,12.93
2017-11-07T10:03:56.592Z,13.00
2017-11-07T10:06:24.368Z,13.04
2017-11-07T10:08:52.165Z,13.46
2017-11-07T10:11:20.878Z,13.90
2017-11-07T10:13:48.793Z,13.83
2017-11-07T10:16:16.689Z,13.81
2017-11-07T10:18:44.621Z,14.15
2017-11-07T10:21:12.411Z,14.45
2017-11-07T10:23:40.201Z,14.54
2017-11-07T10:26:08.034Z,14.40
2017-11-07T10:28:35.937Z,14.30
2017-11-07T10:31:03.832Z,14.30
2017-11-07T10:33:31.790Z,14.14
2017-11-07T10:35:59.656Z,13.86
2017-11-07T10:38:27.449Z,13.81
2017-11-07T10:40:55.290Z,13.95
2017-11-07T10:43:23.204Z,14.33
2017-11-07T10:45:51.003Z,14.60
2017-11-07T10:48:18.838Z,14.82
2017-11-07T10:50:46.633Z,14.87
2017-11-07T10:53:16.444Z,15.23
2017-11-07T10:55:44.401Z,15.62
2017-11-07T10:58:12.264Z,15.83
2017-11-07T11:00:42.084Z,16.17
2017-11-07T11:03:10.048Z,16.20
2017-11-07T11:05:38.745Z,15.94
2017-11-07T11:08:06.764Z,15.44
2017-11-07T11:10:37.525Z,15.34
2017-11-07T11:13:06.114Z,15.41
2017-11-07T11:15:33.904Z,15.37
2017-11-07T11:18:01.844Z,15.44
2017-11-07T11:20:30.570Z,15.42
2017-11-07T11:22:58.474Z,15.55
2017-11-07T11:25:26.454Z,15.34
2017-11-07T11:27:54.257Z,15.29
2017-11-07T11:30:23.002Z,15.43
2017-11-07T11:32:51.766Z,15.51
2017-11-07T11:35:20.814Z,15.50
2017-11-07T11:37:48.714Z,15.38
2017-11-07T11:40:18.117Z,15.10
2017-11-07T11:42:45.914Z,15.08
2017-11-07T11:45:13.707Z,15.11
2017-11-07T11:47:41.540Z,14.97
2017-11-07T11:50:09.340Z,14.84
2017-11-07T11:52:37.122Z,14.70
2017-11-07T11:55:05.961Z,14.67
2017-11-07T11:57:35.490Z,14.29
2017-11-07T12:00:03.409Z,14.15
2017-11-07T12:02:32.087Z,14.15
2017-11-07T12:04:59.985Z,14.08
2017-11-07T12:07:28.710Z,14.14
2017-11-07T12:09:56.613Z,14.05
2017-11-07T12:12:24.528Z,14.12
2017-11-07T12:14:53.328Z,14.13
2017-11-07T12:17:21.428Z,14.27
2017-11-07T12:19:49.218Z,14.26
2017-11-07T12:22:17.009Z,14.14
2017-11-07T12:24:44.801Z,14.11
2017-11-07T12:27:12.605Z,14.06
2017-11-07T12:29:40.408Z,14.03
2017-11-07T12:32:08.174Z,14.02
2017-11-07T12:34:35.945Z,13.98
2017-11-07T12:37:03.772Z,13.84
2017-11-07T12:39:31.574Z,13.72
2017-11-07T12:41:59.365Z,13.60
2017-11-07T12:44:27.140Z,13.54
2017-11-07T12:46:55.042Z,13.49
2017-11-07T12:49:22.831Z,13.39
2017-11-07T12:52:00.549Z,13.34
2017-11-07T12:54:28.409Z,13.30
2017-11-07T12:56:56.312Z,13.27
2017-11-07T12:59:24.109Z,13.28
2017-11-07T13:01:51.994Z,13.20
2017-11-07T13:04:20.775Z,13.15
2017-11-07T13:06:48.702Z,13.09
2017-11-07T13:09:17.446Z,13.14
2017-11-07T13:11:45.241Z,13.16
2017-11-07T13:14:13.193Z,13.12
2017-11-07T13:16:41.036Z,13.13
2017-11-07T13:19:09.866Z,13.12
2017-11-07T13:21:40.110Z,13.15
2017-11-07T13:24:08.980Z,13.16
2017-11-07T13:26:36.778Z,13.17
2017-11-07T13:29:07.208Z,13.19
2017-11-07T13:31:37.252Z,13.18
2017-11-07T13:34:05.383Z,13.16
2017-11-07T13:36:34.787Z,13.15
2017-11-07T13:39:05.319Z,13.11
2017-11-07T13:41:34.228Z,13.10
2017-11-07T13:44:02.664Z,13.08
2017-11-07T13:46:31.538Z,13.09
2017-11-07T13:49:00.795Z,13.07
2017-11-07T13:51:29.788Z,13.06
2017-11-07T13:54:00.740Z,13.04
2017-11-07T13:56:32.466Z,12.96
2017-11-07T13:59:02.187Z,12.94
2017-11-07T14:01:31.682Z,12.91
2017-11-07T14:04:03.805Z,12.85
2017-11-07T14:06:42.509Z,12.75
2017-11-07T14:09:12.384Z,12.74
2017-11-07T14:11:40.667Z,12.71
2017-11-07T14:14:12.930Z,12.63
2017-11-07T14:16:44.000Z,12.61
2017-11-07T14:19:13.975Z,12.60
2017-11-07T14:21:44.720Z,12.55
2017-11-07T14:24:12.999Z,12.53
2017-11-07T14:26:42.622Z,12.46
2017-11-07T14:29:10.841Z,12.40
2017-11-07T14:31:40.219Z,12.33
2017-11-07T14:34:18.392Z,12.26
2017-11-07T14:39:23.753Z,12.11
2017-11-07T14:44:29.355Z,11.98
2017-11-07T14:46:58.606Z,11.94
2017-11-07T14:49:28.878Z,11.87
2017-11-07T14:51:59.006Z,11.75
2017-11-07T14:54:29.930Z,11.60
2017-11-07T14:57:01.340Z,11.49
2017-11-07T14:59:32.071Z,11.38
2017-11-07T15:02:02.542Z,11.23
2017-11-07T15:04:34.814Z,11.05
2017-11-07T15:07:06.607Z,10.98
2017-11-07T15:09:37.811Z,10.89
2017-11-07T15:12:07.900Z,10.75
2017-11-07T15:14:37.691Z,10.63
2017-11-07T15:19:44.339Z,10.44
2017-11-07T15:22:13.077Z,10.35
2017-11-07T15:24:43.599Z,10.31
2017-11-07T15:27:18.021Z,10.21
2017-11-07T15:29:48.639Z,10.13
2017-11-07T15:32:18.827Z,10.06
2017-11-07T15:34:48.203Z,10.01
2017-11-07T15:37:18.559Z,9.91
2017-11-07T15:39:56.582Z,9.77
2017-11-07T15:42:33.143Z,9.66
2017-11-07T15:45:05.441Z,9.56
2017-11-07T15:47:42.411Z,9.45
2017-11-07T15:50:30.149Z,9.35
2017-11-07T15:55:39.295Z,9.25
2017-11-07T15:58:12.964Z,9.21
2017-11-07T16:00:47.315Z,9.09
2017-11-07T16:03:22.846Z,9.03
2017-11-07T16:05:55.100Z,8.94
2017-11-07T16:08:25.550Z,8.85
2017-11-07T16:10:59.546Z,8.82
2017-11-07T16:13:29.240Z,8.77
2017-11-07T16:16:01.031Z,8.74
2017-11-07T16:18:35.150Z,8.71
2017-11-07T16:21:09.110Z,8.67
2017-11-07T16:23:41.389Z,8.60
2017-11-07T16:26:11.225Z,8.53
2017-11-07T16:28:42.564Z,8.42
2017-11-07T16:31:11.894Z,8.36
2017-11-07T16:33:49.133Z,8.30
2017-11-07T16:36:18.862Z,8.26
2017-11-07T16:41:24.705Z,8.24
2017-11-07T16:43:56.201Z,8.23
2017-11-07T16:46:25.581Z,8.16
2017-11-07T16:49:01.881Z,8.15
2017-11-07T16:51:33.097Z,8.10
2017-11-07T16:54:04.659Z,8.01
2017-11-07T16:56:34.423Z,7.96
2017-11-07T16:59:08.403Z,7.93
2017-11-07T17:01:39.474Z,7.88
2017-11-07T17:04:23.761Z,7.85
2017-11-07T17:09:31.578Z,7.76
2017-11-07T17:12:03.581Z,7.74
2017-11-07T17:14:39.635Z,7.70
2017-11-07T17:17:13.823Z,7.66
2017-11-07T17:19:43.547Z,7.65
2017-11-07T17:22:15.855Z,7.64
2017-11-07T17:24:47.860Z,7.66
2017-11-07T17:30:00.909Z,7.59
2017-11-07T17:32:32.146Z,7.54
2017-11-07T17:35:06.333Z,7.53
2017-11-07T17:40:18.787Z,7.48
2017-11-07T17:42:48.739Z,7.45
2017-11-07T17:45:17.385Z,7.46
2017-11-07T17:47:45.165Z,7.43
2017-11-07T17:50:12.789Z,7.38
2017-11-07T17:52:40.482Z,7.34
2017-11-07T17:55:08.186Z,7.33
2017-11-07T17:57:35.819Z,7.32
2017-11-07T18:00:03.472Z,7.32
2017-11-07T18:02:31.143Z,7.31
2017-11-07T18:04:58.844Z,7.30
2017-11-07T18:07:26.536Z,7.26
2017-11-07T18:09:54.256Z,7.25
2017-11-07T18:12:21.883Z,7.25
2017-11-07T18:14:49.503Z,7.18
2017-11-07T18:17:17.219Z,7.20
2017-11-07T18:19:44.896Z,7.19
2017-11-07T18:22:12.512Z,7.14
2017-11-07T18:24:40.243Z,7.15
2017-11-07T18:27:07.933Z,7.14
2017-11-07T18:29:35.605Z,7.15
2017-11-07T18:32:03.347Z,7.14
2017-11-07T18:34:30.989Z,7.14
2017-11-07T18:36:58.610Z,7.13
2017-11-07T18:39:26.304Z,7.06
2017-11-07T18:41:53.991Z,7.08
2017-11-07T18:44:21.625Z,7.04
2017-11-07T18:46:49.295Z,7.00
2017-11-07T18:49:16.911Z,7.01
2017-11-07T18:51:44.596Z,6.97
2017-11-07T18:54:12.283Z,7.00
2017-11-07T18:56:39.972Z,6.99
2017-11-07T18:59:07.628Z,7.01
2017-11-07T19:01:35.388Z,6.95
2017-11-07T19:04:03.012Z,6.93
2017-11-07T19:06:30.635Z,6.91
2017-11-07T19:08:58.301Z,6.91
2017-11-07T19:11:26.720Z,6.90
2017-11-07T19:13:54.347Z,6.88
2017-11-07T19:16:22.094Z,6.82
2017-11-07T19:18:49.741Z,6.78
2017-11-07T19:21:17.387Z,6.73
2017-11-07T19:23:45.055Z,6.74
2017-11-07T19:26:12.818Z,6.75
2017-11-07T19:28:40.463Z,6.78
2017-11-07T19:31:08.154Z,6.74
2017-11-07T19:33:35.823Z,6.70
2017-11-07T19:36:03.517Z,6.67
2017-11-07T19:38:31.223Z,6.64
2017-11-07T19:40:58.908Z,6.64
2017-11-07T19:43:26.539Z,6.66
2017-11-07T19:45:54.275Z,6.67
2017-11-07T19:48:21.899Z,6.70
2017-11-07T19:50:49.533Z,6.73
2017-11-07T19:53:17.197Z,6.74
2017-11-07T19:55:44.828Z,6.79
2017-11-07T19:58:12.462Z,6.84
2017-11-07T20:00:40.207Z,6.87
2017-11-07T20:03:07.911Z,6.94
2017-11-07T20:05:35.615Z,7.00
2017-11-07T20:08:03.361Z,7.06
2017-11-07T20:10:31.036Z,7.18
2017-11-07T20:12:58.722Z,7.30
2017-11-07T20:15:26.539Z,7.40
2017-11-07T20:17:54.172Z,7.43
2017-11-07T20:20:21.791Z,7.52
2017-11-07T20:22:49.471Z,7.63
2017-11-07T20:25:17.096Z,7.69
2017-11-07T20:27:44.715Z,7.79
2017-11-07T20:30:12.396Z,7.90
2017-11-07T20:32:40.016Z,7.98
2017-11-07T20:35:07.683Z,8.06
2017-11-07T20:37:35.357Z,8.16
2017-11-07T20:40:02.971Z,8.27
2017-11-07T20:42:30.587Z,8.39
2017-11-07T20:44:58.253Z,8.48
2017-11-07T20:47:25.877Z,8.55
2017-11-07T20:49:53.554Z,8.58
2017-11-07T20:52:21.276Z,8.61
2017-11-07T20:54:48.959Z,8.63
2017-11-07T20:57:16.598Z,8.55
2017-11-07T20:59:44.357Z,8.51
2017-11-07T21:02:12.048Z,8.41
2017-11-07T21:04:39.657Z,8.35
2017-11-07T21:07:07.323Z,8.30
2017-11-07T21:09:34.943Z,8.24
2017-11-07T21:12:02.557Z,8.21
2017-11-07T21:14:30.233Z,8.14
2017-11-07T21:16:57.859Z,8.18
2017-11-07T21:19:25.484Z,8.17
2017-11-07T21:21:53.307Z,8.23
2017-11-07T21:24:20.959Z,8.36
2017-11-07T21:26:48.588Z,8.52
2017-11-07T21:29:16.416Z,8.62
2017-11-07T21:31:44.039Z,8.72
2017-11-07T21:34:11.719Z,8.81
2017-11-07T21:36:39.411Z,8.81
2017-11-07T21:39:07.036Z,8.91
2017-11-07T21:41:34.652Z,9.02
2017-11-07T21:44:02.441Z,9.07
2017-11-07T21:46:30.127Z,9.10
2017-11-07T21:48:57.820Z,9.11
2017-11-07T21:51:25.475Z,9.16
2017-11-07T21:53:53.083Z,9.17
2017-11-07T21:56:20.759Z,9.20
2017-11-07T21:58:48.423Z,9.22
2017-11-07T22:01:16.048Z,9.26
2017-11-07T22:03:43.723Z,9.26
2017-11-07T22:06:11.552Z,9.23
2017-11-07T22:08:39.162Z,9.22
2017-11-07T22:11:06.845Z,9.17
2017-11-07T22:13:34.520Z,9.07
2017-11-07T22:16:02.147Z,9.00
2017-11-07T22:18:29.852Z,8.93
2017-11-07T22:20:57.519Z,8.85
2017-11-07T22:23:25.951Z,8.76
2017-11-07T22:25:53.631Z,8.65
2017-11-07T22:28:21.311Z,8.59
2017-11-07T22:30:48.935Z,8.57
2017-11-07T22:33:16.547Z,8.51
2017-11-07T22:35:44.216Z,8.48
2017-11-07T22:38:11.832Z,8.57
2017-11-07T22:40:39.447Z,8.61
2017-11-07T22:43:07.117Z,8.56
2017-11-07T22:45:34.800Z,8.51
2017-11-07T22:48:02.481Z,8.57
2017-11-07T22:50:30.151Z,8.58
2017-11-07T22:52:57.766Z,8.53
2017-11-07T22:55:25.380Z,8.65
2017-11-07T22:57:53.110Z,8.62
2017-11-07T23:00:20.739Z,8.53
2017-11-07T23:02:48.352Z,8.49
2017-11-07T23:05:16.026Z,8.48
2017-11-07T23:07:43.634Z,8.43
2017-11-07T23:10:11.247Z,8.35
2017-11-07T23:12:39.028Z,8.25
2017-11-07T23:15:06.689Z,8.24
2017-11-07T23:17:34.306Z,8.15
2017-11-07T23:20:02.036Z,8.06
2017-11-07T23:22:29.647Z,8.03
2017-11-07T23:24:57.276Z,8.03
2017-11-07T23:27:24.944Z,8.00
2017-11-07T23:29:52.563Z,7.95
2017-11-07T23:32:20.171Z,7.88
2017-11-07T23:37:28.913Z,7.84
2017-11-07T23:39:56.527Z,7.76
2017-11-07T23:42:24.639Z,7.73
2017-11-07T23:44:52.316Z,7.69
2017-11-07T23:47:19.926Z,7.63
2017-11-07T23:49:47.595Z,7.58
2017-11-07T23:52:15.260Z,7.54
2017-11-07T23:54:42.876Z,7.50
2017-11-07T23:57:10.561Z,7.47
2017-11-07T23:59:38.287Z,7.39
